createdAt,value
2018-11-05T00:00:53.651Z,12.81
2018-11-05T00:03:22.393Z,12.75
2018-11-05T00:05:51.937Z,12.66
2018-11-05T00:08:20.689Z,12.57
2018-11-05T00:10:49.548Z,12.66
2018-11-05T00:13:18.290Z,12.55
2018-11-05T00:15:47.037Z,12.62
2018-11-05T00:18:15.782Z,12.59
2018-11-05T00:20:44.621Z,12.55
2018-11-05T00:23:13.306Z,12.62
2018-11-05T00:25:42.036Z,12.62
2018-11-05T00:28:10.883Z,12.68
2018-11-05T00:30:39.639Z,12.60
2018-11-05T00:33:08.359Z,12.58
2018-11-05T00:35:37.061Z,12.57
2018-11-05T00:38:05.853Z,12.61
2018-11-05T00:40:34.578Z,12.65
2018-11-05T00:43:03.385Z,12.65
2018-11-05T00:45:32.189Z,12.68
2018-11-05T00:48:00.800Z,12.82
2018-11-05T00:50:29.505Z,12.73
2018-11-05T00:52:58.189Z,12.71
2018-11-05T00:55:26.873Z,12.74
2018-11-05T00:57:55.573Z,12.67
2018-11-05T01:00:24.273Z,12.73
2018-11-05T01:02:52.917Z,12.75
2018-11-05T01:05:21.594Z,12.73
2018-11-05T01:07:50.254Z,12.77
2018-11-05T01:10:18.919Z,12.76
2018-11-05T01:12:47.661Z,12.82
2018-11-05T01:15:17.633Z,12.75
2018-11-05T01:17:46.313Z,12.77
2018-11-05T01:20:15.846Z,12.77
2018-11-05T01:22:44.713Z,12.72
2018-11-05T01:25:13.418Z,12.74
2018-11-05T01:27:42.159Z,12.71
2018-11-05T01:30:12.423Z,12.73
2018-11-05T01:32:41.415Z,12.68
2018-11-05T01:35:11.754Z,12.74
2018-11-05T01:37:40.466Z,12.68
2018-11-05T01:40:11.497Z,12.73
2018-11-05T01:42:40.229Z,12.75
2018-11-05T01:45:10.668Z,12.77
2018-11-05T01:47:39.574Z,12.73
2018-11-05T01:50:09.909Z,12.77
2018-11-05T01:52:38.994Z,12.81
2018-11-05T01:55:08.615Z,12.87
2018-11-05T01:57:37.801Z,12.83
2018-11-05T02:00:09.757Z,12.85
2018-11-05T02:02:38.545Z,12.88
2018-11-05T02:05:08.067Z,12.80
2018-11-05T02:07:36.989Z,12.77
2018-11-05T02:10:08.368Z,12.84
2018-11-05T02:12:37.183Z,12.94
2018-11-05T02:15:06.649Z,12.91
2018-11-05T02:17:35.434Z,12.91
2018-11-05T02:20:04.839Z,12.90
2018-11-05T02:22:33.573Z,12.82
2018-11-05T02:25:02.323Z,12.74
2018-11-05T02:27:31.006Z,12.79
2018-11-05T02:29:59.749Z,12.80
2018-11-05T02:32:28.389Z,12.77
2018-11-05T02:34:57.057Z,12.79
2018-11-05T02:37:25.761Z,12.72
2018-11-05T02:39:54.549Z,12.63
2018-11-05T02:42:23.194Z,12.50
2018-11-05T02:44:51.863Z,12.53
2018-11-05T02:47:20.614Z,12.51
2018-11-05T02:49:49.449Z,12.40
2018-11-05T02:52:18.205Z,12.43
2018-11-05T02:54:46.874Z,12.36
2018-11-05T02:57:15.749Z,12.30
2018-11-05T02:59:44.489Z,12.37
2018-11-05T03:02:13.143Z,12.23
2018-11-05T03:04:41.842Z,12.16
2018-11-05T03:07:10.589Z,12.20
2018-11-05T03:09:39.326Z,12.06
2018-11-05T03:12:08.163Z,12.04
2018-11-05T03:14:37.033Z,12.00
2018-11-05T03:17:06.210Z,12.00
2018-11-05T03:19:34.871Z,11.99
2018-11-05T03:22:03.550Z,11.88
2018-11-05T03:24:32.303Z,11.87
2018-11-05T03:27:00.937Z,11.91
2018-11-05T03:29:29.650Z,11.93
2018-11-05T03:31:58.285Z,11.80
2018-11-05T03:34:27.039Z,11.78
2018-11-05T03:36:55.702Z,11.84
2018-11-05T03:39:24.416Z,11.86
2018-11-05T03:41:53.073Z,11.87
2018-11-05T03:44:21.771Z,11.86
2018-11-05T03:46:50.569Z,11.80
2018-11-05T03:49:19.245Z,11.76
2018-11-05T03:51:47.939Z,11.76
2018-11-05T03:54:16.728Z,11.80
2018-11-05T03:56:45.639Z,11.78
2018-11-05T03:59:14.309Z,11.73
2018-11-05T04:01:43.078Z,11.60
2018-11-05T04:04:11.794Z,11.68
2018-11-05T04:06:40.609Z,11.61
2018-11-05T04:09:10.814Z,11.60
2018-11-05T04:11:39.670Z,11.62
2018-11-05T04:14:08.711Z,11.55
2018-11-05T04:16:37.434Z,11.34
2018-11-05T04:19:06.554Z,11.28
2018-11-05T04:21:40.675Z,11.40
2018-11-05T04:24:10.104Z,11.37
2018-11-05T04:26:38.861Z,11.29
2018-11-05T04:29:08.065Z,11.28
2018-11-05T04:31:36.998Z,11.34
2018-11-05T04:34:05.954Z,11.33
2018-11-05T04:36:35.104Z,11.26
2018-11-05T04:39:05.092Z,11.22
2018-11-05T04:41:33.970Z,11.11
2018-11-05T04:44:02.726Z,11.10
2018-11-05T04:46:31.401Z,11.03
2018-11-05T04:49:00.067Z,11.13
2018-11-05T04:51:28.760Z,11.11
2018-11-05T04:53:57.470Z,11.19
2018-11-05T04:56:26.157Z,11.22
2018-11-05T04:58:54.781Z,11.09
2018-11-05T05:01:23.486Z,11.04
2018-11-05T05:03:52.282Z,11.12
2018-11-05T05:06:20.945Z,11.22
2018-11-05T05:08:49.583Z,11.11
2018-11-05T05:11:18.389Z,11.24
2018-11-05T05:13:47.049Z,11.12
2018-11-05T05:16:15.822Z,11.10
2018-11-05T05:18:44.454Z,11.00
2018-11-05T05:21:13.145Z,10.93
2018-11-05T05:23:41.883Z,10.99
2018-11-05T05:26:10.670Z,10.84
2018-11-05T05:28:39.405Z,10.83
2018-11-05T05:31:08.125Z,10.82
2018-11-05T05:33:37.171Z,10.80
2018-11-05T05:36:06.157Z,10.72
2018-11-05T05:38:34.978Z,10.67
2018-11-05T05:41:03.675Z,10.54
2018-11-05T05:43:32.522Z,10.56
2018-11-05T05:46:01.250Z,10.56
2018-11-05T05:48:30.036Z,10.57
2018-11-05T05:50:58.885Z,10.66
2018-11-05T05:53:27.718Z,10.61
2018-11-05T05:55:56.547Z,10.75
2018-11-05T05:58:25.187Z,10.69
2018-11-05T06:00:53.976Z,10.62
2018-11-05T06:03:22.858Z,10.65
2018-11-05T06:05:51.540Z,10.72
2018-11-05T06:08:20.180Z,10.71
2018-11-05T06:10:49.146Z,10.82
2018-11-05T06:13:17.994Z,10.96
2018-11-05T06:15:46.875Z,10.86
2018-11-05T06:18:15.725Z,10.92
2018-11-05T06:20:44.386Z,10.95
2018-11-05T06:23:13.136Z,10.84
2018-11-05T06:25:41.891Z,10.85
2018-11-05T06:28:10.667Z,10.80
2018-11-05T06:30:39.333Z,10.83
2018-11-05T06:33:08.080Z,10.74
2018-11-05T06:35:36.903Z,10.75
2018-11-05T06:38:06.045Z,10.79
2018-11-05T06:40:34.751Z,10.88
2018-11-05T06:43:03.453Z,10.85
2018-11-05T06:45:32.280Z,10.90
2018-11-05T06:48:01.117Z,10.98
2018-11-05T06:50:29.952Z,10.98
2018-11-05T06:52:58.686Z,10.93
2018-11-05T06:55:27.485Z,10.99
2018-11-05T06:57:56.152Z,10.96
2018-11-05T07:00:25.878Z,11.03
2018-11-05T07:02:54.650Z,11.08
2018-11-05T07:05:23.426Z,11.17
2018-11-05T07:07:52.172Z,11.28
2018-11-05T07:10:20.944Z,11.31
2018-11-05T07:12:49.593Z,11.33
2018-11-05T07:15:19.341Z,11.41
2018-11-05T07:17:49.199Z,11.47
2018-11-05T07:20:19.149Z,11.49
2018-11-05T07:22:48.751Z,11.59
2018-11-05T07:25:17.564Z,11.65
2018-11-05T07:27:46.356Z,11.69
2018-11-05T07:30:17.076Z,11.72
2018-11-05T07:32:46.184Z,11.80
2018-11-05T07:35:15.672Z,11.90
2018-11-05T07:37:44.421Z,11.98
2018-11-05T07:40:14.681Z,12.13
2018-11-05T07:42:43.481Z,12.14
2018-11-05T07:45:14.847Z,12.20
2018-11-05T07:47:44.620Z,12.34
2018-11-05T07:50:14.621Z,12.38
2018-11-05T07:52:43.257Z,12.44
2018-11-05T07:55:13.358Z,12.49
2018-11-05T07:57:43.374Z,12.57
2018-11-05T08:00:18.542Z,12.62
2018-11-05T08:02:48.212Z,12.67
2018-11-05T08:05:18.035Z,12.73
2018-11-05T08:07:47.237Z,12.83
2018-11-05T08:10:15.905Z,12.94
2018-11-05T08:12:44.658Z,13.08
2018-11-05T08:15:15.897Z,12.98
2018-11-05T08:17:46.830Z,13.07
2018-11-05T08:20:15.598Z,13.14
2018-11-05T08:22:44.246Z,13.12
2018-11-05T08:25:13.685Z,13.22
2018-11-05T08:27:42.665Z,13.33
2018-11-05T08:30:15.096Z,13.40
2018-11-05T08:32:43.766Z,13.46
2018-11-05T08:35:13.043Z,13.54
2018-11-05T08:37:42.429Z,13.61
2018-11-05T08:40:14.543Z,13.77
2018-11-05T08:42:43.763Z,13.85
2018-11-05T08:45:13.638Z,13.96
2018-11-05T08:47:42.810Z,14.00
2018-11-05T08:50:13.462Z,14.10
2018-11-05T08:52:42.099Z,14.15
2018-11-05T08:55:14.282Z,14.29
2018-11-05T08:57:43.401Z,14.33
2018-11-05T09:00:20.203Z,14.46
2018-11-05T09:02:49.218Z,14.58
2018-11-05T09:05:18.230Z,14.73
2018-11-05T09:07:47.871Z,14.74
2018-11-05T09:10:16.763Z,14.78
2018-11-05T09:12:45.333Z,14.87
2018-11-05T09:15:15.469Z,14.99
2018-11-05T09:17:45.076Z,15.03
2018-11-05T09:20:15.212Z,15.14
2018-11-05T09:22:43.973Z,15.15
2018-11-05T09:25:13.711Z,15.25
2018-11-05T09:27:42.484Z,15.30
2018-11-05T09:30:15.377Z,15.39
2018-11-05T09:32:45.178Z,15.45
2018-11-05T09:35:14.116Z,15.43
2018-11-05T09:37:42.997Z,15.36
2018-11-05T09:40:15.050Z,15.42
2018-11-05T09:42:44.604Z,15.46
2018-11-05T09:45:16.235Z,15.45
2018-11-05T09:47:45.617Z,15.41
2018-11-05T09:50:14.936Z,15.44
2018-11-05T09:52:43.625Z,15.53
2018-11-05T09:55:13.322Z,15.51
2018-11-05T09:57:42.493Z,15.55
2018-11-05T10:00:13.959Z,15.67
2018-11-05T10:02:48.116Z,15.70
2018-11-05T10:05:17.131Z,15.73
2018-11-05T10:07:46.154Z,15.76
2018-11-05T10:10:15.851Z,15.75
2018-11-05T10:12:44.868Z,15.69
2018-11-05T10:15:14.578Z,15.63
2018-11-05T10:17:43.489Z,15.57
2018-11-05T10:20:16.562Z,15.66
2018-11-05T10:26:42.171Z,15.70
2018-11-05T10:29:11.439Z,15.69
2018-11-05T10:31:40.620Z,15.74
2018-11-05T10:34:12.261Z,15.65
2018-11-05T10:36:44.578Z,15.73
2018-11-05T10:39:19.440Z,15.70
2018-11-05T10:41:52.062Z,15.74
2018-11-05T10:44:25.095Z,15.66
2018-11-05T10:46:55.932Z,15.76
2018-11-05T10:49:30.858Z,15.74
2018-11-05T10:52:05.630Z,15.83
2018-11-05T10:54:38.249Z,15.72
2018-11-05T10:57:07.513Z,15.81
2018-11-05T10:59:36.946Z,15.91
2018-11-05T11:02:16.061Z,15.95
2018-11-05T11:04:50.030Z,15.93
2018-11-05T11:07:19.194Z,16.12
2018-11-05T11:09:52.424Z,16.20
2018-11-05T11:12:22.564Z,16.27
2018-11-05T11:14:55.772Z,16.46
2018-11-05T11:17:26.413Z,16.38
2018-11-05T11:19:55.894Z,16.53
2018-11-05T11:22:27.889Z,16.55
2018-11-05T11:24:58.934Z,16.61
2018-11-05T11:27:28.187Z,16.62
2018-11-05T11:29:59.376Z,16.49
2018-11-05T11:32:32.232Z,16.46
2018-11-05T11:35:01.694Z,16.49
2018-11-05T11:37:35.044Z,16.60
2018-11-05T11:40:08.591Z,16.58
2018-11-05T11:42:42.327Z,16.43
2018-11-05T11:45:16.178Z,16.44
2018-11-05T11:47:50.339Z,16.42
2018-11-05T11:50:22.251Z,16.40
2018-11-05T11:52:53.252Z,16.52
2018-11-05T11:55:27.989Z,16.69
2018-11-05T11:58:01.444Z,16.75
2018-11-05T12:00:53.515Z,16.82
2018-11-05T12:03:23.229Z,17.45
2018-11-05T12:05:55.882Z,18.39
2018-11-05T12:11:07.281Z,20.25
2018-11-05T12:13:36.362Z,21.03
2018-11-05T12:16:05.584Z,22.02
2018-11-05T12:18:34.494Z,22.62
2018-11-05T12:21:03.733Z,22.76
2018-11-05T12:23:32.580Z,22.60
2018-11-05T12:26:01.730Z,23.30
2018-11-05T12:28:30.865Z,23.29
2018-11-05T12:30:59.546Z,23.37
2018-11-05T12:33:28.217Z,23.41
2018-11-05T12:35:56.898Z,23.32
2018-11-05T12:38:25.591Z,24.00
2018-11-05T12:40:54.374Z,24.02
2018-11-05T12:43:23.190Z,24.70
2018-11-05T12:45:52.083Z,24.90
2018-11-05T12:48:20.825Z,25.03
2018-11-05T12:50:49.539Z,25.64
2018-11-05T12:53:18.374Z,25.37
2018-11-05T12:55:47.061Z,25.63
2018-11-05T12:58:15.845Z,25.39
2018-11-05T13:00:44.567Z,26.37
2018-11-05T13:03:13.474Z,27.10
2018-11-05T13:05:42.214Z,27.20
2018-11-05T13:08:10.961Z,26.46
2018-11-05T13:10:39.717Z,27.02
2018-11-05T13:13:08.544Z,27.11
2018-11-05T13:15:37.431Z,27.17
2018-11-05T13:27:56.860Z,28.65
2018-11-05T13:30:27.620Z,28.43
2018-11-05T13:32:56.815Z,28.64
2018-11-05T13:35:25.876Z,29.66
2018-11-05T13:38:05.426Z,28.83
2018-11-05T13:40:39.818Z,29.25
2018-11-05T13:43:10.348Z,28.91
2018-11-05T13:45:40.567Z,29.03
2018-11-05T13:48:19.766Z,29.11
2018-11-05T13:50:53.266Z,30.10
2018-11-05T13:53:22.641Z,29.70
2018-11-05T13:55:52.441Z,29.33
2018-11-05T13:58:22.831Z,29.54
2018-11-05T14:00:54.383Z,29.74
2018-11-05T14:03:29.418Z,30.02
2018-11-05T14:06:01.648Z,30.00
2018-11-05T14:08:35.933Z,29.63
2018-11-05T14:11:05.781Z,28.91
2018-11-05T14:13:38.604Z,27.13
2018-11-05T14:16:10.983Z,25.77
2018-11-05T14:18:43.242Z,24.72
2018-11-05T14:21:12.448Z,23.91
2018-11-05T14:23:44.716Z,22.75
2018-11-05T14:26:27.982Z,22.31
2018-11-05T14:29:02.637Z,21.54
2018-11-05T14:31:32.269Z,21.09
2018-11-05T14:34:03.946Z,20.65
2018-11-05T14:36:36.003Z,20.21
2018-11-05T14:39:12.475Z,20.04
2018-11-05T14:41:43.256Z,19.75
2018-11-05T14:44:13.454Z,19.47
2018-11-05T14:46:46.115Z,19.41
2018-11-05T14:49:18.011Z,19.22
2018-11-05T14:51:47.708Z,19.01
2018-11-05T14:54:19.949Z,18.87
2018-11-05T14:56:53.283Z,18.74
2018-11-05T14:59:26.167Z,18.60
2018-11-05T15:02:00.591Z,18.53
2018-11-05T15:04:30.189Z,18.31
2018-11-05T15:07:04.577Z,18.20
2018-11-05T15:09:36.014Z,18.08
2018-11-05T15:12:09.049Z,17.99
2018-11-05T15:14:38.560Z,17.97
2018-11-05T15:17:10.019Z,17.89
2018-11-05T15:19:44.378Z,17.83
2018-11-05T15:22:16.486Z,17.73
2018-11-05T15:24:51.611Z,17.59
2018-11-05T15:27:26.338Z,17.50
2018-11-05T15:29:57.984Z,17.40
2018-11-05T15:35:17.494Z,17.11
2018-11-05T15:37:51.688Z,17.12
2018-11-05T15:40:23.043Z,17.00
2018-11-05T15:42:54.303Z,16.80
2018-11-05T15:45:27.905Z,16.71
2018-11-05T15:47:59.820Z,16.71
2018-11-05T15:50:31.167Z,16.58
2018-11-05T15:53:02.959Z,16.51
2018-11-05T16:03:49.117Z,16.07
2018-11-05T16:06:22.400Z,16.01
2018-11-05T16:08:53.237Z,16.02
2018-11-05T16:11:22.408Z,15.91
2018-11-05T16:14:19.264Z,15.88
2018-11-05T16:16:53.991Z,15.91
2018-11-05T16:30:31.771Z,15.29
2018-11-05T16:33:03.776Z,15.24
2018-11-05T16:35:33.077Z,15.19
2018-11-05T16:38:02.417Z,15.20
2018-11-05T16:40:31.905Z,15.14
2018-11-05T16:43:03.968Z,15.11
2018-11-05T16:45:35.216Z,15.02
2018-11-05T16:48:06.232Z,15.06
2018-11-05T16:50:35.393Z,15.05
2018-11-05T16:53:05.049Z,14.96
2018-11-05T16:55:36.314Z,14.90
2018-11-05T16:58:05.698Z,14.85
2018-11-05T17:00:36.198Z,14.81
2018-11-05T17:03:07.746Z,14.88
2018-11-05T17:05:39.275Z,14.84
2018-11-05T17:08:12.113Z,14.69
2018-11-05T17:10:41.184Z,14.64
2018-11-05T17:16:05.431Z,14.47
2018-11-05T17:18:38.180Z,14.45
2018-11-05T17:21:08.735Z,14.45
2018-11-05T17:23:37.901Z,14.49
2018-11-05T17:26:08.899Z,14.38
2018-11-05T17:28:40.297Z,14.38
2018-11-05T17:31:09.970Z,14.22
2018-11-05T17:33:39.855Z,13.81
2018-11-05T17:36:09.456Z,13.66
2018-11-05T17:38:41.050Z,13.69
2018-11-05T17:41:11.641Z,13.73
2018-11-05T17:43:40.873Z,13.92
2018-11-05T17:46:10.814Z,13.81
2018-11-05T17:48:39.864Z,13.73
2018-11-05T17:51:13.217Z,13.76
2018-11-05T17:53:42.681Z,13.84
2018-11-05T17:56:12.017Z,13.85
2018-11-05T17:58:42.087Z,13.92
2018-11-05T18:01:13.812Z,13.77
2018-11-05T18:03:45.131Z,13.69
2018-11-05T18:06:14.774Z,13.75
2018-11-05T18:08:44.350Z,13.74
2018-11-05T18:11:13.842Z,13.71
2018-11-05T18:13:43.083Z,13.53
2018-11-05T18:16:13.447Z,13.47
2018-11-05T18:18:43.724Z,13.48
2018-11-05T18:21:13.451Z,13.39
2018-11-05T18:23:43.263Z,13.38
2018-11-05T18:26:13.471Z,13.24
2018-11-05T18:28:50.572Z,13.24
2018-11-05T18:31:24.093Z,13.16
2018-11-05T18:33:54.762Z,13.09
2018-11-05T18:38:06.682Z,13.07
2018-11-05T18:40:39.123Z,13.02
2018-11-05T18:43:09.054Z,12.90
2018-11-05T18:45:43.104Z,12.92
2018-11-05T18:48:14.407Z,12.81
2018-11-05T18:50:48.245Z,12.78
2018-11-05T18:53:22.266Z,12.60
2018-11-05T18:55:54.660Z,12.60
2018-11-05T18:58:27.474Z,12.63
2018-11-05T19:00:58.242Z,12.68
2018-11-05T19:03:29.579Z,12.66
2018-11-05T19:06:08.727Z,12.55
2018-11-05T19:08:44.738Z,12.58
2018-11-05T19:11:20.184Z,12.53
2018-11-05T19:13:54.255Z,12.57
2018-11-05T19:16:32.846Z,12.57
2018-11-05T19:19:07.083Z,12.52
2018-11-05T19:21:39.434Z,12.46
2018-11-05T19:24:10.893Z,12.44
2018-11-05T19:26:41.787Z,12.48
2018-11-05T19:29:13.046Z,12.30
2018-11-05T19:31:49.177Z,12.28
2018-11-05T19:34:23.747Z,12.26
2018-11-05T19:36:57.626Z,12.32
2018-11-05T19:39:28.274Z,12.22
2018-11-05T19:42:00.293Z,12.18
2018-11-05T19:44:31.640Z,12.19
2018-11-05T19:47:03.955Z,12.14
2018-11-05T19:49:36.509Z,12.02
2018-11-05T19:52:07.131Z,11.98
2018-11-05T19:54:42.090Z,11.89
2018-11-05T19:57:13.565Z,11.87
2018-11-05T19:59:50.597Z,11.94
2018-11-05T20:02:27.590Z,11.92
2018-11-05T20:05:03.373Z,11.93
2018-11-05T20:07:38.358Z,11.94
2018-11-05T20:10:14.843Z,11.96
2018-11-05T20:15:27.264Z,11.84
2018-11-05T20:17:58.867Z,11.78
2018-11-05T20:20:32.559Z,11.71
2018-11-05T20:23:05.963Z,11.68
2018-11-05T20:25:39.518Z,11.70
2018-11-05T20:28:13.840Z,11.73
2018-11-05T20:30:48.764Z,11.72
2018-11-05T20:33:23.152Z,11.63
2018-11-05T20:41:14.288Z,11.58
2018-11-05T20:43:48.282Z,11.57
2018-11-05T20:46:25.389Z,11.54
2018-11-05T20:51:38.514Z,11.35
2018-11-05T20:54:08.597Z,11.27
2018-11-05T20:56:42.547Z,11.29
2018-11-05T20:59:12.460Z,11.34
2018-11-05T21:01:44.039Z,11.29
2018-11-05T21:04:16.637Z,11.26
2018-11-05T21:06:51.516Z,11.19
2018-11-05T21:09:23.579Z,11.18
2018-11-05T21:11:54.902Z,11.13
2018-11-05T21:14:30.428Z,11.00
2018-11-05T21:17:03.447Z,10.91
2018-11-05T21:19:36.854Z,11.00
2018-11-05T21:22:11.743Z,10.97
2018-11-05T21:24:46.247Z,10.92
2018-11-05T21:27:16.378Z,10.83
2018-11-05T21:29:50.532Z,10.82
2018-11-05T21:32:22.367Z,10.82
2018-11-05T21:34:56.115Z,10.84
2018-11-05T21:37:25.101Z,10.84
2018-11-05T21:39:56.529Z,10.99
2018-11-05T21:42:28.752Z,11.06
2018-11-05T21:45:09.998Z,11.02
2018-11-05T21:47:40.562Z,10.79
2018-11-05T21:50:12.561Z,10.77
2018-11-05T21:52:46.844Z,10.85
2018-11-05T21:55:21.247Z,10.84
2018-11-05T21:57:51.185Z,10.89
2018-11-05T22:00:26.149Z,10.90
2018-11-05T22:03:02.446Z,10.98
2018-11-05T22:05:33.897Z,11.02
2018-11-05T22:08:05.177Z,11.00
2018-11-05T22:10:35.763Z,10.93
2018-11-05T22:13:07.951Z,10.90
2018-11-05T22:15:44.368Z,10.86
2018-11-05T22:18:18.253Z,10.60
2018-11-05T22:20:47.987Z,10.58
2018-11-05T22:23:18.028Z,10.57
2018-11-05T22:25:50.640Z,10.61
2018-11-05T22:28:22.555Z,10.67
2018-11-05T22:30:53.807Z,10.53
2018-11-05T22:33:25.153Z,10.35
2018-11-05T22:35:57.071Z,10.18
2018-11-05T22:38:30.183Z,10.18
2018-11-05T22:41:02.999Z,10.30
2018-11-05T22:43:36.514Z,10.20
2018-11-05T22:46:07.008Z,10.18
2018-11-05T22:48:45.300Z,10.23
2018-11-05T22:51:19.338Z,10.27
2018-11-05T22:53:50.127Z,10.25
2018-11-05T22:56:21.299Z,10.21
2018-11-05T22:58:52.781Z,10.20
2018-11-05T23:01:28.603Z,10.08
2018-11-05T23:04:03.095Z,10.10
2018-11-05T23:06:36.264Z,10.14
2018-11-05T23:09:08.509Z,10.11
2018-11-05T23:11:38.167Z,9.92
2018-11-05T23:14:10.232Z,10.02
2018-11-05T23:16:40.226Z,9.96
2018-11-05T23:19:15.641Z,9.97
2018-11-05T23:21:49.832Z,9.97
2018-11-05T23:24:21.810Z,9.85
2018-11-05T23:26:53.491Z,9.89
2018-11-05T23:29:25.321Z,9.92
2018-11-05T23:31:58.768Z,9.82
2018-11-05T23:34:28.318Z,9.85
2018-11-05T23:37:03.884Z,9.87
2018-11-05T23:39:35.090Z,9.90
2018-11-05T23:42:07.520Z,9.74
2018-11-05T23:44:38.065Z,9.71
2018-11-05T23:47:08.762Z,9.70
2018-11-05T23:49:38.635Z,9.67
2018-11-05T23:52:09.181Z,9.62
2018-11-05T23:54:40.145Z,9.71
2018-11-05T23:57:09.274Z,9.71
2018-11-05T23:59:38.577Z,9.73
